sensor_id;sensor_type;location;lat;lon;timestamp;P1;durP1;ratioP1;P2;durP2;ratioP2
9524;SDS011;15940;48.734;9.112;2023-03-23T00:00:54;1.73;;;1.43;;
9524;SDS011;15940;48.734;9.112;2023-03-23T00:03:22;1.40;;;1.30;;
9524;SDS011;15940;48.734;9.112;2023-03-23T00:05:51;1.60;;;1.30;;
9524;SDS011;15940;48.734;9.112;2023-03-23T00:10:51;1.50;;;1.37;;
9524;SDS011;15940;48.734;9.112;2023-03-23T00:13:21;1.40;;;1.13;;
9524;SDS011;15940;48.734;9.112;2023-03-23T00:15:49;1.20;;;1.20;;
9524;SDS011;15940;48.734;9.112;2023-03-23T00:18:17;1.77;;;1.20;;
9524;SDS011;15940;48.734;9.112;2023-03-23T00:20:48;1.33;;;1.20;;
9524;SDS011;15940;48.734;9.112;2023-03-23T00:23:16;1.40;;;1.30;;
9524;SDS011;15940;48.734;9.112;2023-03-23T00:25:48;1.50;;;1.40;;
9524;SDS011;15940;48.734;9.112;2023-03-23T00:30:35;3.27;;;1.33;;
9524;SDS011;15940;48.734;9.112;2023-03-23T00:33:02;2.23;;;1.50;;
9524;SDS011;15940;48.734;9.112;2023-03-23T00:35:29;1.50;;;1.40;;
9524;SDS011;15940;48.734;9.112;2023-03-23T00:40:13;2.10;;;1.30;;
9524;SDS011;15940;48.734;9.112;2023-03-23T00:45:06;3.20;;;1.27;;
9524;SDS011;15940;48.734;9.112;2023-03-23T00:47:36;1.87;;;1.60;;
9524;SDS011;15940;48.734;9.112;2023-03-23T00:50:05;2.50;;;1.47;;
9524;SDS011;15940;48.734;9.112;2023-03-23T00:52:34;2.73;;;1.70;;
9524;SDS011;15940;48.734;9.112;2023-03-23T00:57:34;1.57;;;1.30;;
9524;SDS011;15940;48.734;9.112;2023-03-23T01:00:01;1.77;;;1.60;;
9524;SDS011;15940;48.734;9.112;2023-03-23T01:02:33;1.70;;;1.60;;
9524;SDS011;15940;48.734;9.112;2023-03-23T01:05:01;1.83;;;1.60;;
9524;SDS011;15940;48.734;9.112;2023-03-23T01:07:28;2.23;;;1.63;;
9524;SDS011;15940;48.734;9.112;2023-03-23T01:09:56;1.53;;;1.43;;
9524;SDS011;15940;48.734;9.112;2023-03-23T01:12:25;1.57;;;1.47;;
9524;SDS011;15940;48.734;9.112;2023-03-23T01:14:53;1.70;;;1.57;;
9524;SDS011;15940;48.734;9.112;2023-03-23T01:17:20;1.97;;;1.80;;
9524;SDS011;15940;48.734;9.112;2023-03-23T01:19:47;1.50;;;1.40;;
9524;SDS011;15940;48.734;9.112;2023-03-23T01:22:14;1.97;;;1.77;;
9524;SDS011;15940;48.734;9.112;2023-03-23T01:24:41;1.73;;;1.50;;
9524;SDS011;15940;48.734;9.112;2023-03-23T01:27:08;1.90;;;1.67;;
9524;SDS011;15940;48.734;9.112;2023-03-23T01:29:35;1.60;;;1.50;;
9524;SDS011;15940;48.734;9.112;2023-03-23T01:32:03;1.47;;;1.30;;
9524;SDS011;15940;48.734;9.112;2023-03-23T01:34:30;3.43;;;1.70;;
9524;SDS011;15940;48.734;9.112;2023-03-23T01:39:24;2.03;;;1.83;;
9524;SDS011;15940;48.734;9.112;2023-03-23T01:41:51;1.97;;;1.63;;
9524;SDS011;15940;48.734;9.112;2023-03-23T01:47:54;3.27;;;1.60;;
9524;SDS011;15940;48.734;9.112;2023-03-23T01:50:28;1.97;;;1.70;;
9524;SDS011;15940;48.734;9.112;2023-03-23T01:52:59;3.03;;;1.63;;
9524;SDS011;15940;48.734;9.112;2023-03-23T01:55:33;2.37;;;1.60;;
9524;SDS011;15940;48.734;9.112;2023-03-23T01:58:03;1.60;;;1.40;;
9524;SDS011;15940;48.734;9.112;2023-03-23T02:00:31;1.80;;;1.70;;
9524;SDS011;15940;48.734;9.112;2023-03-23T02:02:58;1.60;;;1.50;;
9524;SDS011;15940;48.734;9.112;2023-03-23T02:05:28;1.40;;;1.30;;
9524;SDS011;15940;48.734;9.112;2023-03-23T02:08:00;2.67;;;1.83;;
9524;SDS011;15940;48.734;9.112;2023-03-23T02:10:30;1.50;;;1.40;;
9524;SDS011;15940;48.734;9.112;2023-03-23T02:13:00;3.37;;;1.40;;
9524;SDS011;15940;48.734;9.112;2023-03-23T02:15:32;2.47;;;1.50;;
9524;SDS011;15940;48.734;9.112;2023-03-23T02:26:09;1.70;;;1.60;;
9524;SDS011;15940;48.734;9.112;2023-03-23T02:28:49;1.70;;;1.60;;
9524;SDS011;15940;48.734;9.112;2023-03-23T02:34:03;1.63;;;1.53;;
9524;SDS011;15940;48.734;9.112;2023-03-23T02:36:35;2.17;;;1.60;;
9524;SDS011;15940;48.734;9.112;2023-03-23T02:39:08;1.60;;;1.50;;
9524;SDS011;15940;48.734;9.112;2023-03-23T02:44:00;1.73;;;1.53;;
9524;SDS011;15940;48.734;9.112;2023-03-23T02:46:30;1.73;;;1.63;;
9524;SDS011;15940;48.734;9.112;2023-03-23T02:48:57;1.77;;;1.40;;
9524;SDS011;15940;48.734;9.112;2023-03-23T02:51:26;1.70;;;1.60;;
9524;SDS011;15940;48.734;9.112;2023-03-23T02:53:54;1.80;;;1.70;;
9524;SDS011;15940;48.734;9.112;2023-03-23T02:56:24;4.63;;;1.60;;
9524;SDS011;15940;48.734;9.112;2023-03-23T02:58:53;1.97;;;1.57;;
9524;SDS011;15940;48.734;9.112;2023-03-23T03:06:55;1.70;;;1.60;;
9524;SDS011;15940;48.734;9.112;2023-03-23T03:09:52;1.60;;;1.50;;
9524;SDS011;15940;48.734;9.112;2023-03-23T03:12:27;2.23;;;1.63;;
9524;SDS011;15940;48.734;9.112;2023-03-23T03:15:10;4.03;;;1.83;;
9524;SDS011;15940;48.734;9.112;2023-03-23T03:17:53;1.60;;;1.50;;
9524;SDS011;15940;48.734;9.112;2023-03-23T03:20:28;2.77;;;1.63;;
9524;SDS011;15940;48.734;9.112;2023-03-23T03:22:59;3.23;;;1.43;;
9524;SDS011;15940;48.734;9.112;2023-03-23T03:25:27;1.73;;;1.60;;
9524;SDS011;15940;48.734;9.112;2023-03-23T03:27:55;2.00;;;1.40;;
9524;SDS011;15940;48.734;9.112;2023-03-23T03:30:25;1.50;;;1.40;;
9524;SDS011;15940;48.734;9.112;2023-03-23T03:32:56;1.60;;;1.50;;
9524;SDS011;15940;48.734;9.112;2023-03-23T03:37:55;1.60;;;1.40;;
9524;SDS011;15940;48.734;9.112;2023-03-23T03:40:25;1.70;;;1.60;;
9524;SDS011;15940;48.734;9.112;2023-03-23T03:42:52;2.77;;;1.53;;
9524;SDS011;15940;48.734;9.112;2023-03-23T03:45:19;2.83;;;1.77;;
9524;SDS011;15940;48.734;9.112;2023-03-23T03:47:46;2.17;;;1.60;;
9524;SDS011;15940;48.734;9.112;2023-03-23T03:50:13;1.80;;;1.70;;
9524;SDS011;15940;48.734;9.112;2023-03-23T03:52:41;3.00;;;1.47;;
9524;SDS011;15940;48.734;9.112;2023-03-23T03:57:31;1.50;;;1.40;;
9524;SDS011;15940;48.734;9.112;2023-03-23T03:59:58;2.30;;;1.70;;
9524;SDS011;15940;48.734;9.112;2023-03-23T04:02:25;1.70;;;1.60;;
9524;SDS011;15940;48.734;9.112;2023-03-23T04:04:53;1.60;;;1.50;;
9524;SDS011;15940;48.734;9.112;2023-03-23T04:07:20;2.00;;;1.40;;
9524;SDS011;15940;48.734;9.112;2023-03-23T04:09:51;1.50;;;1.40;;
9524;SDS011;15940;48.734;9.112;2023-03-23T04:12:18;1.47;;;1.37;;
9524;SDS011;15940;48.734;9.112;2023-03-23T04:14:46;1.87;;;1.40;;
9524;SDS011;15940;48.734;9.112;2023-03-23T04:17:15;2.87;;;1.43;;
9524;SDS011;15940;48.734;9.112;2023-03-23T04:19:42;2.30;;;1.50;;
9524;SDS011;15940;48.734;9.112;2023-03-23T04:22:09;1.37;;;1.30;;
9524;SDS011;15940;48.734;9.112;2023-03-23T04:24:36;1.30;;;1.30;;
9524;SDS011;15940;48.734;9.112;2023-03-23T04:27:03;3.63;;;1.60;;
9524;SDS011;15940;48.734;9.112;2023-03-23T04:29:30;1.40;;;1.30;;
9524;SDS011;15940;48.734;9.112;2023-03-23T04:32:00;1.40;;;1.30;;
9524;SDS011;15940;48.734;9.112;2023-03-23T04:34:27;1.60;;;1.20;;
9524;SDS011;15940;48.734;9.112;2023-03-23T04:36:58;2.60;;;1.40;;
9524;SDS011;15940;48.734;9.112;2023-03-23T04:39:25;1.60;;;1.50;;
9524;SDS011;15940;48.734;9.112;2023-03-23T04:41:54;1.50;;;1.40;;
9524;SDS011;15940;48.734;9.112;2023-03-23T04:44:21;1.30;;;1.20;;
9524;SDS011;15940;48.734;9.112;2023-03-23T04:46:47;1.40;;;1.30;;
9524;SDS011;15940;48.734;9.112;2023-03-23T04:49:16;1.40;;;1.30;;
9524;SDS011;15940;48.734;9.112;2023-03-23T04:51:45;1.23;;;1.23;;
9524;SDS011;15940;48.734;9.112;2023-03-23T04:54:13;1.43;;;1.37;;
9524;SDS011;15940;48.734;9.112;2023-03-23T04:56:40;1.77;;;1.67;;
9524;SDS011;15940;48.734;9.112;2023-03-23T04:59:07;1.20;;;1.20;;
9524;SDS011;15940;48.734;9.112;2023-03-23T05:04:04;1.83;;;1.63;;
9524;SDS011;15940;48.734;9.112;2023-03-23T05:06:31;2.47;;;1.93;;
9524;SDS011;15940;48.734;9.112;2023-03-23T05:08:58;2.00;;;1.87;;
9524;SDS011;15940;48.734;9.112;2023-03-23T05:11:24;1.80;;;1.70;;
9524;SDS011;15940;48.734;9.112;2023-03-23T05:13:51;1.60;;;1.50;;
9524;SDS011;15940;48.734;9.112;2023-03-23T05:16:18;1.50;;;1.40;;
9524;SDS011;15940;48.734;9.112;2023-03-23T05:18:45;1.30;;;1.20;;
9524;SDS011;15940;48.734;9.112;2023-03-23T05:21:14;1.50;;;1.40;;
9524;SDS011;15940;48.734;9.112;2023-03-23T05:23:41;3.67;;;1.60;;
9524;SDS011;15940;48.734;9.112;2023-03-23T05:26:08;3.13;;;1.57;;
9524;SDS011;15940;48.734;9.112;2023-03-23T05:28:34;1.60;;;1.50;;
9524;SDS011;15940;48.734;9.112;2023-03-23T05:31:02;1.50;;;1.40;;
9524;SDS011;15940;48.734;9.112;2023-03-23T05:33:29;1.50;;;1.40;;
9524;SDS011;15940;48.734;9.112;2023-03-23T05:35:56;1.50;;;1.40;;
9524;SDS011;15940;48.734;9.112;2023-03-23T05:38:25;2.27;;;1.27;;
9524;SDS011;15940;48.734;9.112;2023-03-23T05:40:51;1.63;;;1.43;;
9524;SDS011;15940;48.734;9.112;2023-03-23T05:43:19;1.73;;;1.60;;
9524;SDS011;15940;48.734;9.112;2023-03-23T05:45:46;1.50;;;1.30;;
9524;SDS011;15940;48.734;9.112;2023-03-23T05:48:13;1.97;;;1.50;;
9524;SDS011;15940;48.734;9.112;2023-03-23T05:50:40;1.60;;;1.50;;
9524;SDS011;15940;48.734;9.112;2023-03-23T05:53:07;1.60;;;1.50;;
9524;SDS011;15940;48.734;9.112;2023-03-23T05:55:36;2.33;;;1.30;;
9524;SDS011;15940;48.734;9.112;2023-03-23T05:58:03;2.40;;;1.53;;
9524;SDS011;15940;48.734;9.112;2023-03-23T06:00:30;1.73;;;1.60;;
9524;SDS011;15940;48.734;9.112;2023-03-23T06:02:57;1.50;;;1.40;;
9524;SDS011;15940;48.734;9.112;2023-03-23T06:05:26;1.87;;;1.60;;
9524;SDS011;15940;48.734;9.112;2023-03-23T06:07:54;3.03;;;1.60;;
9524;SDS011;15940;48.734;9.112;2023-03-23T06:10:21;1.60;;;1.50;;
9524;SDS011;15940;48.734;9.112;2023-03-23T06:12:50;2.67;;;2.00;;
9524;SDS011;15940;48.734;9.112;2023-03-23T06:15:17;4.80;;;2.10;;
9524;SDS011;15940;48.734;9.112;2023-03-23T06:17:45;5.73;;;2.77;;
9524;SDS011;15940;48.734;9.112;2023-03-23T06:20:12;7.83;;;2.70;;
9524;SDS011;15940;48.734;9.112;2023-03-23T06:22:39;4.23;;;2.03;;
9524;SDS011;15940;48.734;9.112;2023-03-23T06:25:07;3.93;;;1.90;;
9524;SDS011;15940;48.734;9.112;2023-03-23T06:27:36;2.57;;;1.73;;
9524;SDS011;15940;48.734;9.112;2023-03-23T06:30:05;2.13;;;1.70;;
9524;SDS011;15940;48.734;9.112;2023-03-23T06:32:33;2.63;;;1.60;;
9524;SDS011;15940;48.734;9.112;2023-03-23T06:35:00;1.70;;;1.60;;
9524;SDS011;15940;48.734;9.112;2023-03-23T06:37:28;2.30;;;1.73;;
9524;SDS011;15940;48.734;9.112;2023-03-23T06:39:55;1.53;;;1.40;;
9524;SDS011;15940;48.734;9.112;2023-03-23T06:42:23;1.60;;;1.50;;
9524;SDS011;15940;48.734;9.112;2023-03-23T06:44:50;1.83;;;1.60;;
9524;SDS011;15940;48.734;9.112;2023-03-23T06:47:19;2.63;;;2.00;;
9524;SDS011;15940;48.734;9.112;2023-03-23T06:49:48;2.20;;;1.80;;
9524;SDS011;15940;48.734;9.112;2023-03-23T06:52:15;6.00;;;1.70;;
9524;SDS011;15940;48.734;9.112;2023-03-23T06:54:42;3.03;;;1.87;;
9524;SDS011;15940;48.734;9.112;2023-03-23T06:57:10;4.57;;;1.50;;
9524;SDS011;15940;48.734;9.112;2023-03-23T06:59:37;1.77;;;1.50;;
9524;SDS011;15940;48.734;9.112;2023-03-23T07:02:04;2.43;;;1.80;;
9524;SDS011;15940;48.734;9.112;2023-03-23T07:04:32;2.13;;;1.53;;
9524;SDS011;15940;48.734;9.112;2023-03-23T07:06:59;1.90;;;1.70;;
9524;SDS011;15940;48.734;9.112;2023-03-23T07:09:26;2.47;;;1.50;;
9524;SDS011;15940;48.734;9.112;2023-03-23T07:11:53;2.50;;;1.60;;
9524;SDS011;15940;48.734;9.112;2023-03-23T07:14:20;3.77;;;1.30;;
9524;SDS011;15940;48.734;9.112;2023-03-23T07:16:48;1.60;;;1.50;;
9524;SDS011;15940;48.734;9.112;2023-03-23T07:19:15;2.60;;;1.67;;
9524;SDS011;15940;48.734;9.112;2023-03-23T07:21:43;1.87;;;1.60;;
9524;SDS011;15940;48.734;9.112;2023-03-23T07:24:10;1.67;;;1.57;;
9524;SDS011;15940;48.734;9.112;2023-03-23T07:26:39;2.20;;;1.67;;
9524;SDS011;15940;48.734;9.112;2023-03-23T07:29:06;1.80;;;1.70;;
9524;SDS011;15940;48.734;9.112;2023-03-23T07:31:34;1.90;;;1.40;;
9524;SDS011;15940;48.734;9.112;2023-03-23T07:34:01;1.37;;;1.27;;
9524;SDS011;15940;48.734;9.112;2023-03-23T07:36:29;2.47;;;1.80;;
9524;SDS011;15940;48.734;9.112;2023-03-23T07:38:57;3.33;;;1.70;;
9524;SDS011;15940;48.734;9.112;2023-03-23T07:43:46;1.73;;;1.63;;
9524;SDS011;15940;48.734;9.112;2023-03-23T07:46:13;2.70;;;1.73;;
9524;SDS011;15940;48.734;9.112;2023-03-23T07:48:41;2.90;;;1.60;;
9524;SDS011;15940;48.734;9.112;2023-03-23T07:51:08;2.17;;;1.50;;
9524;SDS011;15940;48.734;9.112;2023-03-23T07:53:35;2.70;;;1.50;;
9524;SDS011;15940;48.734;9.112;2023-03-23T07:56:02;4.00;;;1.70;;
9524;SDS011;15940;48.734;9.112;2023-03-23T07:58:30;2.00;;;1.73;;
9524;SDS011;15940;48.734;9.112;2023-03-23T08:00:58;1.83;;;1.60;;
9524;SDS011;15940;48.734;9.112;2023-03-23T08:03:25;3.63;;;1.90;;
9524;SDS011;15940;48.734;9.112;2023-03-23T08:05:52;2.30;;;1.83;;
9524;SDS011;15940;48.734;9.112;2023-03-23T08:08:19;2.77;;;1.80;;
9524;SDS011;15940;48.734;9.112;2023-03-23T08:10:46;4.17;;;1.97;;
9524;SDS011;15940;48.734;9.112;2023-03-23T08:13:14;1.93;;;1.60;;
9524;SDS011;15940;48.734;9.112;2023-03-23T08:15:41;3.97;;;1.80;;
9524;SDS011;15940;48.734;9.112;2023-03-23T08:18:09;5.20;;;1.90;;
9524;SDS011;15940;48.734;9.112;2023-03-23T08:20:36;2.03;;;1.83;;
9524;SDS011;15940;48.734;9.112;2023-03-23T08:23:05;3.53;;;1.90;;
9524;SDS011;15940;48.734;9.112;2023-03-23T08:25:32;1.80;;;1.70;;
9524;SDS011;15940;48.734;9.112;2023-03-23T08:27:59;2.57;;;1.70;;
9524;SDS011;15940;48.734;9.112;2023-03-23T08:30:27;3.43;;;1.87;;
9524;SDS011;15940;48.734;9.112;2023-03-23T08:32:57;1.80;;;1.70;;
9524;SDS011;15940;48.734;9.112;2023-03-23T08:35:27;1.97;;;1.73;;
9524;SDS011;15940;48.734;9.112;2023-03-23T08:37:54;2.53;;;1.73;;
9524;SDS011;15940;48.734;9.112;2023-03-23T08:40:22;1.93;;;1.77;;
9524;SDS011;15940;48.734;9.112;2023-03-23T08:42:51;1.90;;;1.70;;
9524;SDS011;15940;48.734;9.112;2023-03-23T08:45:20;5.47;;;1.97;;
9524;SDS011;15940;48.734;9.112;2023-03-23T08:47:48;2.40;;;1.80;;
9524;SDS011;15940;48.734;9.112;2023-03-23T08:50:18;2.60;;;1.93;;
9524;SDS011;15940;48.734;9.112;2023-03-23T08:55:13;1.77;;;1.67;;
9524;SDS011;15940;48.734;9.112;2023-03-23T08:57:40;4.30;;;2.17;;
9524;SDS011;15940;48.734;9.112;2023-03-23T09:00:11;1.90;;;1.80;;
9524;SDS011;15940;48.734;9.112;2023-03-23T09:02:43;2.33;;;2.10;;
9524;SDS011;15940;48.734;9.112;2023-03-23T09:05:12;2.00;;;1.83;;
9524;SDS011;15940;48.734;9.112;2023-03-23T09:07:40;3.60;;;1.93;;
9524;SDS011;15940;48.734;9.112;2023-03-23T09:10:11;1.70;;;1.60;;
9524;SDS011;15940;48.734;9.112;2023-03-23T09:12:40;1.70;;;1.60;;
9524;SDS011;15940;48.734;9.112;2023-03-23T09:17:35;1.63;;;1.53;;
9524;SDS011;15940;48.734;9.112;2023-03-23T09:20:04;2.60;;;1.50;;
9524;SDS011;15940;48.734;9.112;2023-03-23T09:22:36;4.00;;;1.43;;
9524;SDS011;15940;48.734;9.112;2023-03-23T09:25:04;2.47;;;1.70;;
9524;SDS011;15940;48.734;9.112;2023-03-23T09:27:33;2.37;;;1.70;;
9524;SDS011;15940;48.734;9.112;2023-03-23T09:30:01;1.67;;;1.53;;
9524;SDS011;15940;48.734;9.112;2023-03-23T09:32:31;2.03;;;1.50;;
9524;SDS011;15940;48.734;9.112;2023-03-23T09:35:01;2.00;;;1.80;;
9524;SDS011;15940;48.734;9.112;2023-03-23T09:37:30;1.77;;;1.63;;
9524;SDS011;15940;48.734;9.112;2023-03-23T09:39:58;2.27;;;1.90;;
9524;SDS011;15940;48.734;9.112;2023-03-23T09:42:30;5.13;;;1.50;;
9524;SDS011;15940;48.734;9.112;2023-03-23T09:45:10;1.90;;;1.80;;
9524;SDS011;15940;48.734;9.112;2023-03-23T09:47:49;1.60;;;1.50;;
9524;SDS011;15940;48.734;9.112;2023-03-23T09:50:36;1.63;;;1.50;;
9524;SDS011;15940;48.734;9.112;2023-03-23T09:55:26;2.97;;;1.70;;
9524;SDS011;15940;48.734;9.112;2023-03-23T09:57:55;2.43;;;1.60;;
9524;SDS011;15940;48.734;9.112;2023-03-23T10:00:28;2.27;;;1.77;;
9524;SDS011;15940;48.734;9.112;2023-03-23T10:03:00;2.20;;;1.80;;
9524;SDS011;15940;48.734;9.112;2023-03-23T10:05:33;1.73;;;1.63;;
9524;SDS011;15940;48.734;9.112;2023-03-23T10:08:05;1.80;;;1.60;;
9524;SDS011;15940;48.734;9.112;2023-03-23T10:10:48;2.60;;;1.87;;
9524;SDS011;15940;48.734;9.112;2023-03-23T10:13:29;1.60;;;1.50;;
9524;SDS011;15940;48.734;9.112;2023-03-23T10:16:15;1.60;;;1.50;;
9524;SDS011;15940;48.734;9.112;2023-03-23T10:18:47;2.83;;;1.70;;
9524;SDS011;15940;48.734;9.112;2023-03-23T10:21:22;3.63;;;1.57;;
9524;SDS011;15940;48.734;9.112;2023-03-23T10:23:52;1.80;;;1.70;;
9524;SDS011;15940;48.734;9.112;2023-03-23T10:26:36;2.07;;;1.70;;
9524;SDS011;15940;48.734;9.112;2023-03-23T10:29:14;2.53;;;1.57;;
9524;SDS011;15940;48.734;9.112;2023-03-23T10:31:46;2.57;;;1.80;;
9524;SDS011;15940;48.734;9.112;2023-03-23T10:34:19;1.70;;;1.60;;
9524;SDS011;15940;48.734;9.112;2023-03-23T10:36:54;1.93;;;1.73;;
9524;SDS011;15940;48.734;9.112;2023-03-23T10:39:28;2.10;;;1.90;;
9524;SDS011;15940;48.734;9.112;2023-03-23T10:42:01;3.83;;;1.83;;
9524;SDS011;15940;48.734;9.112;2023-03-23T10:44:32;1.83;;;1.70;;
9524;SDS011;15940;48.734;9.112;2023-03-23T10:47:00;1.93;;;1.73;;
9524;SDS011;15940;48.734;9.112;2023-03-23T10:49:31;3.07;;;1.60;;
9524;SDS011;15940;48.734;9.112;2023-03-23T10:52:12;7.93;;;2.07;;
9524;SDS011;15940;48.734;9.112;2023-03-23T10:54:54;2.03;;;1.83;;
9524;SDS011;15940;48.734;9.112;2023-03-23T10:57:25;1.50;;;1.40;;
9524;SDS011;15940;48.734;9.112;2023-03-23T10:59:59;2.10;;;1.90;;
9524;SDS011;15940;48.734;9.112;2023-03-23T11:02:32;1.63;;;1.53;;
9524;SDS011;15940;48.734;9.112;2023-03-23T11:05:07;2.60;;;1.50;;
9524;SDS011;15940;48.734;9.112;2023-03-23T11:07:48;3.53;;;1.83;;
9524;SDS011;15940;48.734;9.112;2023-03-23T11:10:21;1.83;;;1.73;;
9524;SDS011;15940;48.734;9.112;2023-03-23T11:12:52;3.43;;;2.00;;
9524;SDS011;15940;48.734;9.112;2023-03-23T11:15:26;2.70;;;1.70;;
9524;SDS011;15940;48.734;9.112;2023-03-23T11:17:57;1.87;;;1.77;;
9524;SDS011;15940;48.734;9.112;2023-03-23T11:20:27;2.07;;;1.60;;
9524;SDS011;15940;48.734;9.112;2023-03-23T11:23:00;2.10;;;2.00;;
9524;SDS011;15940;48.734;9.112;2023-03-23T11:25:33;4.87;;;2.40;;
9524;SDS011;15940;48.734;9.112;2023-03-23T11:28:15;2.23;;;2.03;;
9524;SDS011;15940;48.734;9.112;2023-03-23T11:30:42;3.30;;;2.10;;
9524;SDS011;15940;48.734;9.112;2023-03-23T11:33:09;3.27;;;1.80;;
9524;SDS011;15940;48.734;9.112;2023-03-23T11:35:42;2.00;;;1.80;;
9524;SDS011;15940;48.734;9.112;2023-03-23T11:38:15;1.83;;;1.73;;
9524;SDS011;15940;48.734;9.112;2023-03-23T11:40:47;5.00;;;1.83;;
9524;SDS011;15940;48.734;9.112;2023-03-23T11:43:19;3.63;;;1.90;;
9524;SDS011;15940;48.734;9.112;2023-03-23T11:45:50;2.17;;;1.97;;
9524;SDS011;15940;48.734;9.112;2023-03-23T11:48:31;1.80;;;1.70;;
9524;SDS011;15940;48.734;9.112;2023-03-23T11:51:05;2.40;;;2.00;;
9524;SDS011;15940;48.734;9.112;2023-03-23T11:53:42;1.83;;;1.73;;
9524;SDS011;15940;48.734;9.112;2023-03-23T11:56:20;1.60;;;1.50;;
9524;SDS011;15940;48.734;9.112;2023-03-23T11:58:52;1.80;;;1.70;;
9524;SDS011;15940;48.734;9.112;2023-03-23T12:01:29;2.53;;;1.80;;
9524;SDS011;15940;48.734;9.112;2023-03-23T12:04:30;2.20;;;1.50;;
9524;SDS011;15940;48.734;9.112;2023-03-23T12:07:14;2.67;;;1.50;;
9524;SDS011;15940;48.734;9.112;2023-03-23T12:10:09;1.87;;;1.77;;
9524;SDS011;15940;48.734;9.112;2023-03-23T12:12:55;2.03;;;1.80;;
9524;SDS011;15940;48.734;9.112;2023-03-23T12:15:38;2.20;;;1.70;;
9524;SDS011;15940;48.734;9.112;2023-03-23T12:18:21;2.07;;;1.80;;
9524;SDS011;15940;48.734;9.112;2023-03-23T12:21:05;1.83;;;1.50;;
9524;SDS011;15940;48.734;9.112;2023-03-23T12:23:42;2.07;;;1.43;;
9524;SDS011;15940;48.734;9.112;2023-03-23T12:26:19;3.73;;;1.37;;
9524;SDS011;15940;48.734;9.112;2023-03-23T12:29:01;3.63;;;1.60;;
9524;SDS011;15940;48.734;9.112;2023-03-23T12:31:46;1.87;;;1.73;;
9524;SDS011;15940;48.734;9.112;2023-03-23T12:34:26;1.60;;;1.50;;
9524;SDS011;15940;48.734;9.112;2023-03-23T12:37:09;2.67;;;1.70;;
9524;SDS011;15940;48.734;9.112;2023-03-23T12:40:03;2.53;;;1.83;;
9524;SDS011;15940;48.734;9.112;2023-03-23T12:42:54;2.00;;;1.77;;
9524;SDS011;15940;48.734;9.112;2023-03-23T12:48:20;2.30;;;1.70;;
9524;SDS011;15940;48.734;9.112;2023-03-23T12:51:01;1.97;;;1.70;;
9524;SDS011;15940;48.734;9.112;2023-03-23T12:53:41;2.10;;;1.90;;
9524;SDS011;15940;48.734;9.112;2023-03-23T12:56:19;2.00;;;1.83;;
9524;SDS011;15940;48.734;9.112;2023-03-23T12:58:58;3.97;;;1.90;;
9524;SDS011;15940;48.734;9.112;2023-03-23T13:01:41;3.07;;;1.90;;
9524;SDS011;15940;48.734;9.112;2023-03-23T13:04:14;2.03;;;1.83;;
9524;SDS011;15940;48.734;9.112;2023-03-23T13:06:47;4.17;;;1.80;;
9524;SDS011;15940;48.734;9.112;2023-03-23T13:09:16;1.90;;;1.80;;
9524;SDS011;15940;48.734;9.112;2023-03-23T13:11:50;3.07;;;1.70;;
9524;SDS011;15940;48.734;9.112;2023-03-23T13:14:24;1.90;;;1.80;;
9524;SDS011;15940;48.734;9.112;2023-03-23T13:17:04;1.87;;;1.77;;
9524;SDS011;15940;48.734;9.112;2023-03-23T13:23:02;2.20;;;1.80;;
9524;SDS011;15940;48.734;9.112;2023-03-23T13:25:49;4.77;;;1.67;;
9524;SDS011;15940;48.734;9.112;2023-03-23T13:28:23;1.70;;;1.60;;
9524;SDS011;15940;48.734;9.112;2023-03-23T13:30:54;1.60;;;1.50;;
9524;SDS011;15940;48.734;9.112;2023-03-23T13:33:31;1.73;;;1.63;;
9524;SDS011;15940;48.734;9.112;2023-03-23T13:36:08;2.00;;;1.90;;
9524;SDS011;15940;48.734;9.112;2023-03-23T13:38:38;5.70;;;1.70;;
9524;SDS011;15940;48.734;9.112;2023-03-23T13:41:13;1.90;;;1.80;;
9524;SDS011;15940;48.734;9.112;2023-03-23T13:43:45;3.07;;;1.60;;
9524;SDS011;15940;48.734;9.112;2023-03-23T13:46:22;2.17;;;1.83;;
9524;SDS011;15940;48.734;9.112;2023-03-23T13:49:04;1.53;;;1.43;;
9524;SDS011;15940;48.734;9.112;2023-03-23T13:51:52;3.33;;;1.77;;
9524;SDS011;15940;48.734;9.112;2023-03-23T13:54:30;1.83;;;1.73;;
9524;SDS011;15940;48.734;9.112;2023-03-23T13:57:18;3.07;;;1.70;;
9524;SDS011;15940;48.734;9.112;2023-03-23T13:59:55;2.80;;;1.63;;
9524;SDS011;15940;48.734;9.112;2023-03-23T14:02:28;2.10;;;1.80;;
9524;SDS011;15940;48.734;9.112;2023-03-23T14:05:19;2.07;;;1.87;;
9524;SDS011;15940;48.734;9.112;2023-03-23T14:08:00;1.97;;;1.73;;
9524;SDS011;15940;48.734;9.112;2023-03-23T14:10:39;6.17;;;1.90;;
9524;SDS011;15940;48.734;9.112;2023-03-23T14:13:13;3.60;;;1.90;;
9524;SDS011;15940;48.734;9.112;2023-03-23T14:15:53;1.63;;;1.53;;
9524;SDS011;15940;48.734;9.112;2023-03-23T14:18:27;2.30;;;2.10;;
9524;SDS011;15940;48.734;9.112;2023-03-23T14:21:00;3.40;;;2.00;;
9524;SDS011;15940;48.734;9.112;2023-03-23T14:23:30;1.70;;;1.60;;
9524;SDS011;15940;48.734;9.112;2023-03-23T14:26:00;2.33;;;2.13;;
9524;SDS011;15940;48.734;9.112;2023-03-23T14:28:32;2.70;;;1.93;;
9524;SDS011;15940;48.734;9.112;2023-03-23T14:31:04;2.07;;;1.90;;
9524;SDS011;15940;48.734;9.112;2023-03-23T14:33:41;1.73;;;1.63;;
9524;SDS011;15940;48.734;9.112;2023-03-23T14:36:08;1.83;;;1.73;;
9524;SDS011;15940;48.734;9.112;2023-03-23T14:38:36;2.33;;;1.97;;
9524;SDS011;15940;48.734;9.112;2023-03-23T14:41:04;2.20;;;2.00;;
9524;SDS011;15940;48.734;9.112;2023-03-23T14:43:33;2.00;;;1.80;;
9524;SDS011;15940;48.734;9.112;2023-03-23T14:46:01;2.03;;;1.83;;
9524;SDS011;15940;48.734;9.112;2023-03-23T14:48:33;1.90;;;1.80;;
9524;SDS011;15940;48.734;9.112;2023-03-23T14:51:02;2.03;;;1.70;;
9524;SDS011;15940;48.734;9.112;2023-03-23T14:53:32;3.00;;;2.10;;
9524;SDS011;15940;48.734;9.112;2023-03-23T14:56:08;2.87;;;2.07;;
9524;SDS011;15940;48.734;9.112;2023-03-23T14:58:37;2.47;;;2.10;;
9524;SDS011;15940;48.734;9.112;2023-03-23T15:01:05;2.87;;;2.00;;
9524;SDS011;15940;48.734;9.112;2023-03-23T15:03:37;2.80;;;2.30;;
9524;SDS011;15940;48.734;9.112;2023-03-23T15:06:07;5.17;;;3.10;;
9524;SDS011;15940;48.734;9.112;2023-03-23T15:08:41;2.90;;;2.10;;
9524;SDS011;15940;48.734;9.112;2023-03-23T15:11:12;2.40;;;2.20;;
9524;SDS011;15940;48.734;9.112;2023-03-23T15:13:50;4.57;;;2.30;;
9524;SDS011;15940;48.734;9.112;2023-03-23T15:16:21;2.10;;;2.00;;
9524;SDS011;15940;48.734;9.112;2023-03-23T15:18:51;4.80;;;2.33;;
9524;SDS011;15940;48.734;9.112;2023-03-23T15:21:26;3.67;;;2.20;;
9524;SDS011;15940;48.734;9.112;2023-03-23T15:23:57;4.90;;;2.30;;
9524;SDS011;15940;48.734;9.112;2023-03-23T15:26:34;5.17;;;2.17;;
9524;SDS011;15940;48.734;9.112;2023-03-23T15:29:14;7.00;;;4.50;;
9524;SDS011;15940;48.734;9.112;2023-03-23T15:31:46;5.17;;;3.87;;
9524;SDS011;15940;48.734;9.112;2023-03-23T15:34:16;6.27;;;3.97;;
9524;SDS011;15940;48.734;9.112;2023-03-23T15:36:55;8.47;;;5.00;;
9524;SDS011;15940;48.734;9.112;2023-03-23T15:39:26;4.57;;;3.27;;
9524;SDS011;15940;48.734;9.112;2023-03-23T15:41:54;3.93;;;2.83;;
9524;SDS011;15940;48.734;9.112;2023-03-23T15:44:27;6.10;;;3.47;;
9524;SDS011;15940;48.734;9.112;2023-03-23T15:47:15;6.23;;;3.00;;
9524;SDS011;15940;48.734;9.112;2023-03-23T15:49:45;3.63;;;2.77;;
9524;SDS011;15940;48.734;9.112;2023-03-23T15:52:24;3.90;;;2.77;;
9524;SDS011;15940;48.734;9.112;2023-03-23T15:54:52;6.13;;;3.50;;
9524;SDS011;15940;48.734;9.112;2023-03-23T15:57:19;3.17;;;2.03;;
9524;SDS011;15940;48.734;9.112;2023-03-23T15:59:46;2.40;;;2.20;;
9524;SDS011;15940;48.734;9.112;2023-03-23T16:02:15;2.63;;;2.10;;
9524;SDS011;15940;48.734;9.112;2023-03-23T16:04:47;3.00;;;1.97;;
9524;SDS011;15940;48.734;9.112;2023-03-23T16:07:14;2.00;;;1.80;;
9524;SDS011;15940;48.734;9.112;2023-03-23T16:09:41;2.13;;;1.93;;
9524;SDS011;15940;48.734;9.112;2023-03-23T16:12:11;2.20;;;2.00;;
9524;SDS011;15940;48.734;9.112;2023-03-23T16:14:38;2.20;;;2.10;;
9524;SDS011;15940;48.734;9.112;2023-03-23T16:17:08;2.27;;;2.07;;
9524;SDS011;15940;48.734;9.112;2023-03-23T16:19:37;3.00;;;1.87;;
9524;SDS011;15940;48.734;9.112;2023-03-23T16:22:04;2.10;;;1.90;;
9524;SDS011;15940;48.734;9.112;2023-03-23T16:24:31;2.63;;;1.70;;